sensor_id;sensor_type;location;lat;lon;timestamp;P1;durP1;ratioP1;P2;durP2;ratioP2
52368;SDS011;38298;50.346;3.526;2023-08-24T00:01:21;7.50;;;2.05;;
52368;SDS011;38298;50.346;3.526;2023-08-24T00:03:47;6.18;;;2.03;;
52368;SDS011;38298;50.346;3.526;2023-08-24T00:06:13;5.97;;;2.67;;
52368;SDS011;38298;50.346;3.526;2023-08-24T00:08:40;3.25;;;2.38;;
52368;SDS011;38298;50.346;3.526;2023-08-24T00:11:06;8.98;;;2.30;;
52368;SDS011;38298;50.346;3.526;2023-08-24T00:13:32;6.35;;;2.35;;
52368;SDS011;38298;50.346;3.526;2023-08-24T00:15:58;7.90;;;2.05;;
52368;SDS011;38298;50.346;3.526;2023-08-24T00:18:24;4.43;;;1.73;;
52368;SDS011;38298;50.346;3.526;2023-08-24T00:20:51;4.35;;;2.10;;
52368;SDS011;38298;50.346;3.526;2023-08-24T00:23:17;7.45;;;2.58;;
52368;SDS011;38298;50.346;3.526;2023-08-24T00:25:43;4.88;;;2.25;;
52368;SDS011;38298;50.346;3.526;2023-08-24T00:28:09;4.05;;;2.22;;
52368;SDS011;38298;50.346;3.526;2023-08-24T00:30:36;5.68;;;1.98;;
52368;SDS011;38298;50.346;3.526;2023-08-24T00:33:02;6.18;;;2.40;;
52368;SDS011;38298;50.346;3.526;2023-08-24T00:35:29;5.25;;;2.10;;
52368;SDS011;38298;50.346;3.526;2023-08-24T00:37:56;4.80;;;2.05;;
52368;SDS011;38298;50.346;3.526;2023-08-24T00:40:22;3.38;;;2.15;;
52368;SDS011;38298;50.346;3.526;2023-08-24T00:42:48;8.30;;;2.33;;
52368;SDS011;38298;50.346;3.526;2023-08-24T00:45:14;6.57;;;2.10;;
52368;SDS011;38298;50.346;3.526;2023-08-24T00:47:40;5.65;;;1.65;;
52368;SDS011;38298;50.346;3.526;2023-08-24T00:50:07;6.32;;;2.25;;
52368;SDS011;38298;50.346;3.526;2023-08-24T00:52:34;5.70;;;2.30;;
52368;SDS011;38298;50.346;3.526;2023-08-24T00:55:02;7.65;;;2.58;;
52368;SDS011;38298;50.346;3.526;2023-08-24T00:57:28;3.67;;;2.08;;
52368;SDS011;38298;50.346;3.526;2023-08-24T00:59:55;7.72;;;2.20;;
52368;SDS011;38298;50.346;3.526;2023-08-24T01:02:21;4.13;;;2.42;;
52368;SDS011;38298;50.346;3.526;2023-08-24T01:04:47;11.68;;;3.03;;
52368;SDS011;38298;50.346;3.526;2023-08-24T01:07:14;6.63;;;2.50;;
52368;SDS011;38298;50.346;3.526;2023-08-24T01:09:40;5.78;;;2.45;;
52368;SDS011;38298;50.346;3.526;2023-08-24T01:17:09;4.07;;;2.35;;
52368;SDS011;38298;50.346;3.526;2023-08-24T01:19:37;8.27;;;3.13;;
52368;SDS011;38298;50.346;3.526;2023-08-24T01:22:05;4.68;;;2.28;;
52368;SDS011;38298;50.346;3.526;2023-08-24T01:24:41;4.57;;;2.10;;
52368;SDS011;38298;50.346;3.526;2023-08-24T01:27:09;5.25;;;2.47;;
52368;SDS011;38298;50.346;3.526;2023-08-24T01:29:36;5.90;;;2.30;;
52368;SDS011;38298;50.346;3.526;2023-08-24T01:32:03;8.60;;;2.50;;
52368;SDS011;38298;50.346;3.526;2023-08-24T01:34:29;4.22;;;2.17;;
52368;SDS011;38298;50.346;3.526;2023-08-24T01:36:55;6.00;;;2.58;;
52368;SDS011;38298;50.346;3.526;2023-08-24T01:39:35;6.43;;;2.40;;
52368;SDS011;38298;50.346;3.526;2023-08-24T01:42:03;6.50;;;2.45;;
52368;SDS011;38298;50.346;3.526;2023-08-24T01:44:31;5.53;;;2.60;;
52368;SDS011;38298;50.346;3.526;2023-08-24T01:46:58;5.93;;;2.67;;
52368;SDS011;38298;50.346;3.526;2023-08-24T01:49:25;7.43;;;3.03;;
52368;SDS011;38298;50.346;3.526;2023-08-24T01:51:52;5.22;;;2.60;;
52368;SDS011;38298;50.346;3.526;2023-08-24T01:54:19;5.00;;;2.58;;
52368;SDS011;38298;50.346;3.526;2023-08-24T01:56:45;4.75;;;2.53;;
52368;SDS011;38298;50.346;3.526;2023-08-24T01:59:11;9.60;;;2.65;;
52368;SDS011;38298;50.346;3.526;2023-08-24T02:01:37;6.57;;;2.67;;
52368;SDS011;38298;50.346;3.526;2023-08-24T02:04:03;3.80;;;2.40;;
52368;SDS011;38298;50.346;3.526;2023-08-24T02:06:29;4.25;;;2.58;;
52368;SDS011;38298;50.346;3.526;2023-08-24T02:08:55;2.88;;;2.28;;
52368;SDS011;38298;50.346;3.526;2023-08-24T02:11:21;2.92;;;2.08;;
52368;SDS011;38298;50.346;3.526;2023-08-24T02:13:47;6.07;;;2.22;;
52368;SDS011;38298;50.346;3.526;2023-08-24T02:16:13;7.20;;;1.98;;
52368;SDS011;38298;50.346;3.526;2023-08-24T02:18:42;4.78;;;2.50;;
52368;SDS011;38298;50.346;3.526;2023-08-24T02:21:08;5.63;;;2.38;;
52368;SDS011;38298;50.346;3.526;2023-08-24T02:23:39;5.68;;;2.38;;
52368;SDS011;38298;50.346;3.526;2023-08-24T02:26:05;4.82;;;2.08;;
52368;SDS011;38298;50.346;3.526;2023-08-24T02:28:32;3.97;;;2.22;;
52368;SDS011;38298;50.346;3.526;2023-08-24T02:31:02;6.38;;;2.40;;
52368;SDS011;38298;50.346;3.526;2023-08-24T02:33:28;5.82;;;1.98;;
52368;SDS011;38298;50.346;3.526;2023-08-24T02:35:54;4.00;;;2.25;;
52368;SDS011;38298;50.346;3.526;2023-08-24T02:38:21;3.38;;;2.50;;
52368;SDS011;38298;50.346;3.526;2023-08-24T02:40:47;2.75;;;2.17;;
52368;SDS011;38298;50.346;3.526;2023-08-24T02:43:13;3.70;;;2.35;;
52368;SDS011;38298;50.346;3.526;2023-08-24T02:45:39;4.45;;;2.28;;
52368;SDS011;38298;50.346;3.526;2023-08-24T02:48:05;2.70;;;1.90;;
52368;SDS011;38298;50.346;3.526;2023-08-24T02:50:31;4.75;;;2.05;;
52368;SDS011;38298;50.346;3.526;2023-08-24T02:52:57;6.13;;;2.17;;
52368;SDS011;38298;50.346;3.526;2023-08-24T02:55:24;5.38;;;2.13;;
52368;SDS011;38298;50.346;3.526;2023-08-24T02:57:50;4.07;;;2.40;;
52368;SDS011;38298;50.346;3.526;2023-08-24T03:00:16;5.13;;;2.50;;
52368;SDS011;38298;50.346;3.526;2023-08-24T03:02:42;4.90;;;2.28;;
52368;SDS011;38298;50.346;3.526;2023-08-24T03:05:08;2.90;;;2.05;;
52368;SDS011;38298;50.346;3.526;2023-08-24T03:07:34;3.30;;;2.60;;
52368;SDS011;38298;50.346;3.526;2023-08-24T03:10:00;6.40;;;2.50;;
52368;SDS011;38298;50.346;3.526;2023-08-24T03:12:26;5.40;;;2.50;;
52368;SDS011;38298;50.346;3.526;2023-08-24T03:14:52;7.20;;;3.30;;
52368;SDS011;38298;50.346;3.526;2023-08-24T03:17:19;3.70;;;2.20;;
52368;SDS011;38298;50.346;3.526;2023-08-24T03:19:45;2.85;;;2.10;;
52368;SDS011;38298;50.346;3.526;2023-08-24T03:22:11;5.25;;;2.60;;
52368;SDS011;38298;50.346;3.526;2023-08-24T03:24:37;5.53;;;2.45;;
52368;SDS011;38298;50.346;3.526;2023-08-24T03:27:03;5.43;;;2.50;;
52368;SDS011;38298;50.346;3.526;2023-08-24T03:29:29;5.55;;;2.80;;
52368;SDS011;38298;50.346;3.526;2023-08-24T03:31:55;5.22;;;2.35;;
52368;SDS011;38298;50.346;3.526;2023-08-24T03:34:21;4.90;;;2.28;;
52368;SDS011;38298;50.346;3.526;2023-08-24T03:36:48;7.90;;;2.50;;
52368;SDS011;38298;50.346;3.526;2023-08-24T03:39:14;5.55;;;2.30;;
52368;SDS011;38298;50.346;3.526;2023-08-24T03:41:43;9.38;;;2.53;;
52368;SDS011;38298;50.346;3.526;2023-08-24T03:44:09;3.85;;;2.42;;
52368;SDS011;38298;50.346;3.526;2023-08-24T03:46:36;4.38;;;2.40;;
52368;SDS011;38298;50.346;3.526;2023-08-24T03:49:02;3.17;;;2.50;;
52368;SDS011;38298;50.346;3.526;2023-08-24T03:51:28;4.13;;;2.13;;
52368;SDS011;38298;50.346;3.526;2023-08-24T03:53:54;3.90;;;1.92;;
52368;SDS011;38298;50.346;3.526;2023-08-24T03:56:19;4.72;;;2.40;;
52368;SDS011;38298;50.346;3.526;2023-08-24T03:58:45;6.05;;;2.28;;
52368;SDS011;38298;50.346;3.526;2023-08-24T04:01:11;6.28;;;2.30;;
52368;SDS011;38298;50.346;3.526;2023-08-24T04:03:37;3.92;;;2.70;;
52368;SDS011;38298;50.346;3.526;2023-08-24T04:06:03;4.35;;;2.47;;
52368;SDS011;38298;50.346;3.526;2023-08-24T04:08:30;4.03;;;2.50;;
52368;SDS011;38298;50.346;3.526;2023-08-24T04:10:56;2.50;;;2.00;;
52368;SDS011;38298;50.346;3.526;2023-08-24T04:13:22;4.03;;;2.38;;
52368;SDS011;38298;50.346;3.526;2023-08-24T04:15:48;3.75;;;2.40;;
52368;SDS011;38298;50.346;3.526;2023-08-24T04:18:14;5.53;;;2.80;;
52368;SDS011;38298;50.346;3.526;2023-08-24T04:20:40;6.32;;;2.53;;
52368;SDS011;38298;50.346;3.526;2023-08-24T04:23:06;4.97;;;2.72;;
52368;SDS011;38298;50.346;3.526;2023-08-24T04:25:32;4.10;;;2.60;;
52368;SDS011;38298;50.346;3.526;2023-08-24T04:27:58;6.82;;;2.30;;
52368;SDS011;38298;50.346;3.526;2023-08-24T04:30:24;5.43;;;2.63;;
52368;SDS011;38298;50.346;3.526;2023-08-24T04:32:51;6.78;;;2.50;;
52368;SDS011;38298;50.346;3.526;2023-08-24T04:35:17;4.03;;;2.35;;
52368;SDS011;38298;50.346;3.526;2023-08-24T04:37:43;3.90;;;2.58;;
52368;SDS011;38298;50.346;3.526;2023-08-24T04:40:09;3.33;;;2.67;;
52368;SDS011;38298;50.346;3.526;2023-08-24T04:42:36;4.18;;;2.47;;
52368;SDS011;38298;50.346;3.526;2023-08-24T04:45:02;11.15;;;2.65;;
52368;SDS011;38298;50.346;3.526;2023-08-24T04:47:28;5.82;;;3.00;;
52368;SDS011;38298;50.346;3.526;2023-08-24T04:49:54;3.22;;;2.30;;
52368;SDS011;38298;50.346;3.526;2023-08-24T04:52:20;9.10;;;3.00;;
52368;SDS011;38298;50.346;3.526;2023-08-24T04:54:46;5.65;;;2.80;;
52368;SDS011;38298;50.346;3.526;2023-08-24T04:57:12;4.90;;;2.25;;
52368;SDS011;38298;50.346;3.526;2023-08-24T04:59:38;3.85;;;2.70;;
52368;SDS011;38298;50.346;3.526;2023-08-24T05:02:04;3.00;;;2.50;;
52368;SDS011;38298;50.346;3.526;2023-08-24T05:04:30;6.45;;;2.88;;
52368;SDS011;38298;50.346;3.526;2023-08-24T05:06:56;4.25;;;2.70;;
52368;SDS011;38298;50.346;3.526;2023-08-24T05:09:22;4.00;;;2.97;;
52368;SDS011;38298;50.346;3.526;2023-08-24T05:11:48;4.68;;;2.90;;
52368;SDS011;38298;50.346;3.526;2023-08-24T05:14:14;5.40;;;2.90;;
52368;SDS011;38298;50.346;3.526;2023-08-24T05:16:40;5.25;;;2.88;;
52368;SDS011;38298;50.346;3.526;2023-08-24T05:19:09;3.63;;;2.40;;
52368;SDS011;38298;50.346;3.526;2023-08-24T05:21:35;5.25;;;2.53;;
52368;SDS011;38298;50.346;3.526;2023-08-24T05:24:01;3.63;;;2.50;;
52368;SDS011;38298;50.346;3.526;2023-08-24T05:26:30;9.63;;;3.17;;
52368;SDS011;38298;50.346;3.526;2023-08-24T05:28:56;9.73;;;2.78;;
52368;SDS011;38298;50.346;3.526;2023-08-24T05:31:22;4.88;;;2.70;;
52368;SDS011;38298;50.346;3.526;2023-08-24T05:33:48;6.68;;;2.47;;
52368;SDS011;38298;50.346;3.526;2023-08-24T05:36:17;4.72;;;3.25;;
52368;SDS011;38298;50.346;3.526;2023-08-24T05:38:43;4.60;;;2.60;;
52368;SDS011;38298;50.346;3.526;2023-08-24T05:41:12;5.30;;;2.75;;
52368;SDS011;38298;50.346;3.526;2023-08-24T05:43:38;12.57;;;3.35;;
52368;SDS011;38298;50.346;3.526;2023-08-24T05:46:04;3.80;;;2.92;;
52368;SDS011;38298;50.346;3.526;2023-08-24T05:48:30;5.28;;;3.22;;
52368;SDS011;38298;50.346;3.526;2023-08-24T05:50:56;3.95;;;2.95;;
52368;SDS011;38298;50.346;3.526;2023-08-24T05:53:22;7.57;;;2.67;;
52368;SDS011;38298;50.346;3.526;2023-08-24T05:55:48;6.78;;;2.58;;
52368;SDS011;38298;50.346;3.526;2023-08-24T05:58:15;5.07;;;2.78;;
52368;SDS011;38298;50.346;3.526;2023-08-24T06:00:41;3.67;;;2.78;;
52368;SDS011;38298;50.346;3.526;2023-08-24T06:03:07;6.97;;;3.17;;
52368;SDS011;38298;50.346;3.526;2023-08-24T06:05:34;6.82;;;2.65;;
52368;SDS011;38298;50.346;3.526;2023-08-24T06:08:00;9.15;;;3.00;;
52368;SDS011;38298;50.346;3.526;2023-08-24T06:10:26;10.25;;;2.80;;
52368;SDS011;38298;50.346;3.526;2023-08-24T06:12:53;8.32;;;3.38;;
52368;SDS011;38298;50.346;3.526;2023-08-24T06:15:19;7.85;;;3.40;;
52368;SDS011;38298;50.346;3.526;2023-08-24T06:17:48;9.13;;;2.80;;
52368;SDS011;38298;50.346;3.526;2023-08-24T06:20:14;11.85;;;2.90;;
52368;SDS011;38298;50.346;3.526;2023-08-24T06:22:40;7.30;;;2.85;;
52368;SDS011;38298;50.346;3.526;2023-08-24T06:25:08;14.35;;;3.20;;
52368;SDS011;38298;50.346;3.526;2023-08-24T06:27:34;7.70;;;2.65;;
52368;SDS011;38298;50.346;3.526;2023-08-24T06:30:01;8.98;;;2.67;;
52368;SDS011;38298;50.346;3.526;2023-08-24T06:32:28;7.07;;;2.50;;
52368;SDS011;38298;50.346;3.526;2023-08-24T06:34:54;8.70;;;3.05;;
52368;SDS011;38298;50.346;3.526;2023-08-24T06:37:20;8.93;;;2.72;;
52368;SDS011;38298;50.346;3.526;2023-08-24T06:39:46;3.63;;;2.50;;
52368;SDS011;38298;50.346;3.526;2023-08-24T06:42:12;8.00;;;2.65;;
52368;SDS011;38298;50.346;3.526;2023-08-24T06:44:38;8.40;;;2.47;;
52368;SDS011;38298;50.346;3.526;2023-08-24T06:47:04;3.60;;;2.30;;
52368;SDS011;38298;50.346;3.526;2023-08-24T06:49:30;4.60;;;2.45;;
52368;SDS011;38298;50.346;3.526;2023-08-24T06:51:56;7.22;;;2.42;;
52368;SDS011;38298;50.346;3.526;2023-08-24T06:54:22;4.47;;;2.38;;
52368;SDS011;38298;50.346;3.526;2023-08-24T06:56:48;2.75;;;2.05;;
52368;SDS011;38298;50.346;3.526;2023-08-24T06:59:14;5.47;;;2.15;;
52368;SDS011;38298;50.346;3.526;2023-08-24T07:01:40;8.43;;;2.60;;
52368;SDS011;38298;50.346;3.526;2023-08-24T07:04:07;8.45;;;2.38;;
52368;SDS011;38298;50.346;3.526;2023-08-24T07:06:33;4.95;;;2.53;;
52368;SDS011;38298;50.346;3.526;2023-08-24T07:09:00;6.28;;;2.50;;
52368;SDS011;38298;50.346;3.526;2023-08-24T07:11:28;4.35;;;2.45;;
52368;SDS011;38298;50.346;3.526;2023-08-24T07:13:54;3.72;;;2.25;;
52368;SDS011;38298;50.346;3.526;2023-08-24T07:16:20;4.82;;;2.20;;
52368;SDS011;38298;50.346;3.526;2023-08-24T07:18:47;3.85;;;2.42;;
52368;SDS011;38298;50.346;3.526;2023-08-24T07:21:13;4.57;;;2.30;;
52368;SDS011;38298;50.346;3.526;2023-08-24T07:23:47;5.45;;;2.67;;
52368;SDS011;38298;50.346;3.526;2023-08-24T07:26:13;10.77;;;2.60;;
52368;SDS011;38298;50.346;3.526;2023-08-24T07:28:39;4.47;;;2.67;;
52368;SDS011;38298;50.346;3.526;2023-08-24T07:31:09;9.18;;;2.78;;
52368;SDS011;38298;50.346;3.526;2023-08-24T07:33:36;7.63;;;3.05;;
52368;SDS011;38298;50.346;3.526;2023-08-24T07:36:03;8.63;;;2.83;;
52368;SDS011;38298;50.346;3.526;2023-08-24T07:38:30;7.82;;;3.13;;
52368;SDS011;38298;50.346;3.526;2023-08-24T07:40:56;8.43;;;3.20;;
52368;SDS011;38298;50.346;3.526;2023-08-24T07:43:23;10.73;;;2.85;;
52368;SDS011;38298;50.346;3.526;2023-08-24T07:45:49;4.55;;;2.75;;
52368;SDS011;38298;50.346;3.526;2023-08-24T07:48:15;7.45;;;2.95;;
52368;SDS011;38298;50.346;3.526;2023-08-24T07:50:41;7.00;;;2.85;;
52368;SDS011;38298;50.346;3.526;2023-08-24T07:53:07;5.60;;;2.45;;
52368;SDS011;38298;50.346;3.526;2023-08-24T07:55:34;7.15;;;2.58;;
52368;SDS011;38298;50.346;3.526;2023-08-24T07:58:00;5.10;;;2.78;;
52368;SDS011;38298;50.346;3.526;2023-08-24T08:00:26;4.68;;;2.40;;
52368;SDS011;38298;50.346;3.526;2023-08-24T08:02:52;4.90;;;2.78;;
52368;SDS011;38298;50.346;3.526;2023-08-24T08:05:18;6.97;;;2.97;;
52368;SDS011;38298;50.346;3.526;2023-08-24T08:07:44;7.43;;;2.50;;
52368;SDS011;38298;50.346;3.526;2023-08-24T08:10:10;12.18;;;3.03;;
52368;SDS011;38298;50.346;3.526;2023-08-24T08:12:36;9.02;;;2.80;;
52368;SDS011;38298;50.346;3.526;2023-08-24T08:15:02;6.93;;;3.13;;
52368;SDS011;38298;50.346;3.526;2023-08-24T08:17:29;5.45;;;2.30;;
52368;SDS011;38298;50.346;3.526;2023-08-24T08:19:55;5.32;;;2.90;;
52368;SDS011;38298;50.346;3.526;2023-08-24T08:22:21;8.02;;;2.72;;
52368;SDS011;38298;50.346;3.526;2023-08-24T08:24:47;6.47;;;3.45;;
52368;SDS011;38298;50.346;3.526;2023-08-24T08:27:15;7.68;;;3.17;;
52368;SDS011;38298;50.346;3.526;2023-08-24T08:29:41;8.27;;;2.97;;
52368;SDS011;38298;50.346;3.526;2023-08-24T08:32:07;5.18;;;3.33;;
52368;SDS011;38298;50.346;3.526;2023-08-24T08:34:33;5.43;;;3.30;;
52368;SDS011;38298;50.346;3.526;2023-08-24T08:36:59;6.10;;;3.50;;
52368;SDS011;38298;50.346;3.526;2023-08-24T08:39:25;7.88;;;4.63;;
52368;SDS011;38298;50.346;3.526;2023-08-24T08:41:52;6.43;;;3.00;;
52368;SDS011;38298;50.346;3.526;2023-08-24T08:44:18;4.85;;;3.35;;
52368;SDS011;38298;50.346;3.526;2023-08-24T08:46:44;9.90;;;3.53;;
52368;SDS011;38298;50.346;3.526;2023-08-24T08:49:12;8.98;;;3.38;;
52368;SDS011;38298;50.346;3.526;2023-08-24T08:51:41;9.52;;;3.80;;
52368;SDS011;38298;50.346;3.526;2023-08-24T08:54:07;10.55;;;4.03;;
52368;SDS011;38298;50.346;3.526;2023-08-24T08:56:34;15.70;;;4.90;;
52368;SDS011;38298;50.346;3.526;2023-08-24T08:59:00;8.15;;;4.32;;
52368;SDS011;38298;50.346;3.526;2023-08-24T09:01:28;12.85;;;4.60;;
52368;SDS011;38298;50.346;3.526;2023-08-24T09:03:54;16.42;;;5.13;;
52368;SDS011;38298;50.346;3.526;2023-08-24T09:06:20;10.02;;;4.68;;
52368;SDS011;38298;50.346;3.526;2023-08-24T09:08:48;9.25;;;4.85;;
52368;SDS011;38298;50.346;3.526;2023-08-24T09:11:14;16.65;;;5.07;;
52368;SDS011;38298;50.346;3.526;2023-08-24T09:13:42;12.05;;;4.82;;
52368;SDS011;38298;50.346;3.526;2023-08-24T09:16:08;8.68;;;4.53;;
52368;SDS011;38298;50.346;3.526;2023-08-24T09:18:48;9.32;;;4.90;;
52368;SDS011;38298;50.346;3.526;2023-08-24T09:21:15;9.82;;;4.68;;
52368;SDS011;38298;50.346;3.526;2023-08-24T09:23:44;9.00;;;4.53;;
52368;SDS011;38298;50.346;3.526;2023-08-24T09:26:11;12.15;;;5.05;;
52368;SDS011;38298;50.346;3.526;2023-08-24T09:28:37;9.65;;;4.85;;
52368;SDS011;38298;50.346;3.526;2023-08-24T09:31:04;9.38;;;4.50;;
52368;SDS011;38298;50.346;3.526;2023-08-24T09:33:30;12.40;;;5.07;;
52368;SDS011;38298;50.346;3.526;2023-08-24T09:35:56;8.73;;;4.93;;
52368;SDS011;38298;50.346;3.526;2023-08-24T09:38:26;10.30;;;4.55;;
52368;SDS011;38298;50.346;3.526;2023-08-24T09:40:55;6.47;;;4.25;;
52368;SDS011;38298;50.346;3.526;2023-08-24T09:43:22;11.90;;;4.53;;
52368;SDS011;38298;50.346;3.526;2023-08-24T09:48:15;12.07;;;4.40;;
52368;SDS011;38298;50.346;3.526;2023-08-24T09:50:48;7.00;;;4.38;;
52368;SDS011;38298;50.346;3.526;2023-08-24T09:53:18;10.02;;;4.30;;
52368;SDS011;38298;50.346;3.526;2023-08-24T09:55:49;15.27;;;4.90;;
52368;SDS011;38298;50.346;3.526;2023-08-24T09:58:15;9.18;;;4.32;;
52368;SDS011;38298;50.346;3.526;2023-08-24T10:00:41;8.57;;;4.53;;
52368;SDS011;38298;50.346;3.526;2023-08-24T10:03:12;9.63;;;5.07;;
52368;SDS011;38298;50.346;3.526;2023-08-24T10:05:41;10.70;;;4.00;;
52368;SDS011;38298;50.346;3.526;2023-08-24T10:08:09;12.90;;;3.78;;
52368;SDS011;38298;50.346;3.526;2023-08-24T10:10:35;10.90;;;3.50;;
52368;SDS011;38298;50.346;3.526;2023-08-24T10:13:11;6.60;;;3.92;;
52368;SDS011;38298;50.346;3.526;2023-08-24T10:15:40;7.85;;;4.38;;
52368;SDS011;38298;50.346;3.526;2023-08-24T10:18:11;8.70;;;4.28;;
52368;SDS011;38298;50.346;3.526;2023-08-24T10:20:37;5.63;;;3.80;;
52368;SDS011;38298;50.346;3.526;2023-08-24T10:23:03;8.73;;;4.00;;
52368;SDS011;38298;50.346;3.526;2023-08-24T10:25:29;5.28;;;3.85;;
52368;SDS011;38298;50.346;3.526;2023-08-24T10:27:56;4.70;;;3.35;;
52368;SDS011;38298;50.346;3.526;2023-08-24T10:30:23;6.55;;;3.70;;
52368;SDS011;38298;50.346;3.526;2023-08-24T10:32:50;6.88;;;3.58;;
52368;SDS011;38298;50.346;3.526;2023-08-24T10:35:18;6.32;;;3.40;;
52368;SDS011;38298;50.346;3.526;2023-08-24T10:37:45;5.47;;;3.67;;
52368;SDS011;38298;50.346;3.526;2023-08-24T10:40:11;5.97;;;3.05;;
52368;SDS011;38298;50.346;3.526;2023-08-24T10:42:45;12.77;;;3.45;;
52368;SDS011;38298;50.346;3.526;2023-08-24T10:45:14;7.28;;;3.10;;
52368;SDS011;38298;50.346;3.526;2023-08-24T10:47:46;8.27;;;3.72;;
52368;SDS011;38298;50.346;3.526;2023-08-24T10:50:12;4.30;;;3.25;;
52368;SDS011;38298;50.346;3.526;2023-08-24T10:52:40;8.38;;;3.80;;
52368;SDS011;38298;50.346;3.526;2023-08-24T10:55:25;5.60;;;3.60;;
52368;SDS011;38298;50.346;3.526;2023-08-24T10:57:58;7.05;;;3.42;;
52368;SDS011;38298;50.346;3.526;2023-08-24T11:00:27;4.60;;;3.10;;
52368;SDS011;38298;50.346;3.526;2023-08-24T11:02:53;3.80;;;3.30;;
52368;SDS011;38298;50.346;3.526;2023-08-24T11:05:20;5.90;;;2.92;;
52368;SDS011;38298;50.346;3.526;2023-08-24T11:10:16;7.65;;;3.90;;
52368;SDS011;38298;50.346;3.526;2023-08-24T11:15:31;10.57;;;3.78;;
52368;SDS011;38298;50.346;3.526;2023-08-24T11:18:10;6.32;;;3.20;;
52368;SDS011;38298;50.346;3.526;2023-08-24T11:20:36;6.93;;;3.72;;
52368;SDS011;38298;50.346;3.526;2023-08-24T11:23:02;11.30;;;3.92;;
52368;SDS011;38298;50.346;3.526;2023-08-24T11:25:28;5.85;;;3.58;;
52368;SDS011;38298;50.346;3.526;2023-08-24T11:27:56;6.43;;;3.33;;
52368;SDS011;38298;50.346;3.526;2023-08-24T11:30:23;7.85;;;3.50;;
52368;SDS011;38298;50.346;3.526;2023-08-24T11:32:52;8.20;;;3.85;;
52368;SDS011;38298;50.346;3.526;2023-08-24T11:35:18;6.82;;;3.60;;
52368;SDS011;38298;50.346;3.526;2023-08-24T11:37:50;10.27;;;3.70;;
52368;SDS011;38298;50.346;3.526;2023-08-24T11:40:17;7.40;;;3.72;;
52368;SDS011;38298;50.346;3.526;2023-08-24T11:42:44;11.95;;;3.53;;
52368;SDS011;38298;50.346;3.526;2023-08-24T11:45:13;7.57;;;3.72;;
52368;SDS011;38298;50.346;3.526;2023-08-24T11:47:42;5.10;;;3.40;;
52368;SDS011;38298;50.346;3.526;2023-08-24T11:50:09;9.65;;;3.55;;
52368;SDS011;38298;50.346;3.526;2023-08-24T11:52:41;5.85;;;3.50;;
52368;SDS011;38298;50.346;3.526;2023-08-24T11:55:08;3.80;;;3.00;;
52368;SDS011;38298;50.346;3.526;2023-08-24T11:57:34;4.97;;;2.83;;
52368;SDS011;38298;50.346;3.526;2023-08-24T12:00:01;8.23;;;3.17;;
52368;SDS011;38298;50.346;3.526;2023-08-24T12:02:28;6.03;;;3.22;;
52368;SDS011;38298;50.346;3.526;2023-08-24T12:04:54;4.22;;;2.28;;
52368;SDS011;38298;50.346;3.526;2023-08-24T12:07:20;3.28;;;2.03;;
52368;SDS011;38298;50.346;3.526;2023-08-24T12:09:46;3.97;;;2.00;;
52368;SDS011;38298;50.346;3.526;2023-08-24T12:12:17;4.90;;;2.10;;
52368;SDS011;38298;50.346;3.526;2023-08-24T12:14:45;3.50;;;2.17;;
52368;SDS011;38298;50.346;3.526;2023-08-24T12:17:12;6.40;;;2.28;;
52368;SDS011;38298;50.346;3.526;2023-08-24T12:19:41;4.30;;;2.20;;
52368;SDS011;38298;50.346;3.526;2023-08-24T12:22:12;8.43;;;2.20;;
52368;SDS011;38298;50.346;3.526;2023-08-24T12:24:42;5.37;;;2.20;;
52368;SDS011;38298;50.346;3.526;2023-08-24T12:27:16;3.88;;;2.08;;
52368;SDS011;38298;50.346;3.526;2023-08-24T12:29:46;6.55;;;2.03;;
52368;SDS011;38298;50.346;3.526;2023-08-24T12:32:12;3.10;;;1.98;;
52368;SDS011;38298;50.346;3.526;2023-08-24T12:34:40;3.40;;;1.63;;
52368;SDS011;38298;50.346;3.526;2023-08-24T12:37:06;6.95;;;2.17;;
52368;SDS011;38298;50.346;3.526;2023-08-24T12:39:36;5.78;;;2.05;;
52368;SDS011;38298;50.346;3.526;2023-08-24T12:42:02;6.80;;;2.30;;
52368;SDS011;38298;50.346;3.526;2023-08-24T12:44:28;8.80;;;2.15;;
52368;SDS011;38298;50.346;3.526;2023-08-24T12:46:54;3.17;;;2.03;;
52368;SDS011;38298;50.346;3.526;2023-08-24T12:49:20;2.67;;;1.77;;
52368;SDS011;38298;50.346;3.526;2023-08-24T12:51:46;8.63;;;1.83;;
52368;SDS011;38298;50.346;3.526;2023-08-24T12:54:12;3.75;;;1.92;;
52368;SDS011;38298;50.346;3.526;2023-08-24T12:56:39;4.93;;;1.90;;
52368;SDS011;38298;50.346;3.526;2023-08-24T12:59:06;2.60;;;1.55;;
52368;SDS011;38298;50.346;3.526;2023-08-24T13:01:31;3.20;;;1.90;;
52368;SDS011;38298;50.346;3.526;2023-08-24T13:03:57;7.25;;;1.63;;
52368;SDS011;38298;50.346;3.526;2023-08-24T13:06:23;3.90;;;1.67;;
52368;SDS011;38298;50.346;3.526;2023-08-24T13:08:50;9.73;;;1.83;;
52368;SDS011;38298;50.346;3.526;2023-08-24T13:11:16;3.05;;;1.42;;
52368;SDS011;38298;50.346;3.526;2023-08-24T13:13:42;3.60;;;1.35;;
52368;SDS011;38298;50.346;3.526;2023-08-24T13:16:10;2.38;;;1.38;;
52368;SDS011;38298;50.346;3.526;2023-08-24T13:18:36;4.20;;;1.73;;
52368;SDS011;38298;50.346;3.526;2023-08-24T13:21:02;3.80;;;1.92;;
52368;SDS011;38298;50.346;3.526;2023-08-24T13:23:28;3.03;;;1.40;;
52368;SDS011;38298;50.346;3.526;2023-08-24T13:25:57;10.82;;;2.00;;
52368;SDS011;38298;50.346;3.526;2023-08-24T13:28:23;2.35;;;1.67;;
52368;SDS011;38298;50.346;3.526;2023-08-24T13:30:49;5.50;;;1.50;;
52368;SDS011;38298;50.346;3.526;2023-08-24T13:33:15;3.38;;;1.30;;
52368;SDS011;38298;50.346;3.526;2023-08-24T13:35:42;6.88;;;2.05;;
52368;SDS011;38298;50.346;3.526;2023-08-24T13:38:08;8.15;;;1.73;;
52368;SDS011;38298;50.346;3.526;2023-08-24T13:40:34;4.93;;;1.58;;
52368;SDS011;38298;50.346;3.526;2023-08-24T13:43:00;6.03;;;1.88;;
52368;SDS011;38298;50.346;3.526;2023-08-24T13:45:26;1.98;;;1.30;;
52368;SDS011;38298;50.346;3.526;2023-08-24T13:47:55;4.72;;;1.27;;
52368;SDS011;38298;50.346;3.526;2023-08-24T13:50:24;2.67;;;1.30;;
52368;SDS011;38298;50.346;3.526;2023-08-24T13:52:50;5.00;;;1.30;;
52368;SDS011;38298;50.346;3.526;2023-08-24T13:55:16;2.95;;;1.00;;
52368;SDS011;38298;50.346;3.526;2023-08-24T13:57:42;3.70;;;1.25;;
52368;SDS011;38298;50.346;3.526;2023-08-24T14:00:08;3.70;;;1.42;;
52368;SDS011;38298;50.346;3.526;2023-08-24T14:02:36;1.50;;;1.00;;
52368;SDS011;38298;50.346;3.526;2023-08-24T14:05:02;5.72;;;1.05;;
52368;SDS011;38298;50.346;3.526;2023-08-24T14:07:28;3.17;;;0.98;;
52368;SDS011;38298;50.346;3.526;2023-08-24T14:09:55;2.90;;;0.90;;
52368;SDS011;38298;50.346;3.526;2023-08-24T14:12:21;4.50;;;0.60;;
52368;SDS011;38298;50.346;3.526;2023-08-24T14:14:47;2.70;;;0.80;;
52368;SDS011;38298;50.346;3.526;2023-08-24T14:17:13;2.20;;;1.10;;
52368;SDS011;38298;50.346;3.526;2023-08-24T14:19:41;2.05;;;1.02;;
52368;SDS011;38298;50.346;3.526;2023-08-24T14:22:08;2.88;;;0.70;;
52368;SDS011;38298;50.346;3.526;2023-08-24T14:24:34;1.88;;;0.80;;
52368;SDS011;38298;50.346;3.526;2023-08-24T14:27:00;4.00;;;0.80;;
52368;SDS011;38298;50.346;3.526;2023-08-24T14:29:26;5.40;;;0.98;;
52368;SDS011;38298;50.346;3.526;2023-08-24T14:31:52;4.80;;;0.73;;
52368;SDS011;38298;50.346;3.526;2023-08-24T14:34:18;2.42;;;0.85;;
52368;SDS011;38298;50.346;3.526;2023-08-24T14:36:44;3.05;;;1.00;;
52368;SDS011;38298;50.346;3.526;2023-08-24T14:39:10;1.27;;;1.02;;
52368;SDS011;38298;50.346;3.526;2023-08-24T14:41:36;1.48;;;0.90;;
52368;SDS011;38298;50.346;3.526;2023-08-24T14:44:02;1.10;;;0.80;;
52368;SDS011;38298;50.346;3.526;2023-08-24T14:46:28;1.20;;;0.90;;
52368;SDS011;38298;50.346;3.526;2023-08-24T14:48:54;3.45;;;0.88;;
52368;SDS011;38298;50.346;3.526;2023-08-24T14:51:20;2.33;;;0.70;;
52368;SDS011;38298;50.346;3.526;2023-08-24T14:53:46;2.05;;;0.80;;
52368;SDS011;38298;50.346;3.526;2023-08-24T14:56:12;1.98;;;0.50;;